Time;durP1;ratioP1;P1;durP2;ratioP2;P2;SDS_P1;SDS_P2;PMS_P1;PMS_P2;Temp;Humidity;BMP_temperature;BMP_pressure;BME280_temperature;BME280_humidity;BME280_pressure;Samples;Min_cycle;Max_cycle;Signal;HPM_P1;HPM_P2
2022/04/06 00:01:58;;;;;;;;;8.25;3.00;;;;;12.49;65.47;100874.75;5037291;28;45500;-69
2022/04/06 00:04:24;;;;;;;;;4.50;2.00;;;;;12.54;65.55;100889.41;5035409;28;46551;-69
2022/04/06 00:06:52;;;;;;;;;3.50;1.00;;;;;12.52;65.34;100877.22;5034750;28;45407;-69
2022/04/06 00:09:19;;;;;;;;;3.00;2.00;;;;;12.56;64.84;100891.13;5033286;28;45432;-69
2022/04/06 00:11:45;;;;;;;;;2.00;1.50;;;;;12.46;64.72;100878.38;5032496;28;45464;-69
2022/04/06 00:14:10;;;;;;;;;3.75;2.00;;;;;12.46;64.27;100875.75;5032554;28;45342;-69
2022/04/06 00:16:36;;;;;;;;;3.00;2.00;;;;;12.39;64.60;100863.81;5029714;28;45305;-69
2022/04/06 00:19:01;;;;;;;;;1.25;1.00;;;;;12.45;64.50;100878.47;5035654;28;45424;-69
2022/04/06 00:21:27;;;;;;;;;1.50;1.25;;;;;12.36;63.83;100869.22;5033131;28;45448;-69
2022/04/06 00:23:53;;;;;;;;;1.00;1.00;;;;;12.32;63.56;100874.69;5032438;28;46954;-69
2022/04/06 00:26:18;;;;;;;;;0.00;0.00;;;;;12.32;63.50;100877.34;5032420;28;45468;-69
2022/04/06 00:28:44;;;;;;;;;3.00;0.25;;;;;12.24;63.71;100862.75;5032573;28;45430;-69
2022/04/06 00:31:09;;;;;;;;;2.00;2.00;;;;;12.19;63.60;100863.91;5037234;28;45397;-69
2022/04/06 00:33:35;;;;;;;;;1.75;0.25;;;;;12.15;63.17;100857.91;5020762;28;46486;-69
2022/04/06 00:36:00;;;;;;;;;2.50;1.00;;;;;12.06;63.04;100845.19;5031394;28;45461;-69
2022/04/06 00:38:25;;;;;;;;;2.25;0.00;;;;;12.11;63.38;100863.41;5032241;28;45401;-69
2022/04/06 00:40:51;;;;;;;;;1.00;1.00;;;;;12.06;63.18;100849.59;5032434;28;45429;-69
2022/04/06 00:43:16;;;;;;;;;0.50;0.00;;;;;12.11;63.02;100858.13;5036011;28;46204;-69
2022/04/06 00:45:43;;;;;;;;;2.00;1.00;;;;;12.10;63.23;100845.88;5030858;28;45385;-69
2022/04/06 00:48:09;;;;;;;;;2.00;0.75;;;;;12.06;63.44;100836.41;5030685;28;45401;-69
2022/04/06 00:50:36;;;;;;;;;1.75;1.00;;;;;12.10;63.26;100838.00;5031560;28;46078;-69
2022/04/06 00:53:03;;;;;;;;;2.00;1.00;;;;;12.08;63.37;100840.69;5032895;28;46269;-69
2022/04/06 00:55:34;;;;;;;;;3.00;2.00;;;;;12.00;63.20;100830.50;5034256;28;45468;-69
2022/04/06 00:58:00;;;;;;;;;2.00;0.25;;;;;11.98;63.26;100839.44;5035274;28;45591;-69
2022/04/06 01:00:26;;;;;;;;;1.50;0.00;;;;;11.99;63.16;100823.53;5032392;28;45464;-69
2022/04/06 01:02:52;;;;;;;;;1.00;1.00;;;;;11.97;63.34;100825.41;5031474;28;45503;-69
2022/04/06 01:05:17;;;;;;;;;1.00;1.00;;;;;11.85;63.32;100820.72;5032089;28;45459;-69
2022/04/06 01:07:48;;;;;;;;;3.75;1.00;;;;;11.79;63.07;100835.91;5014584;28;45736;-69
2022/04/06 01:10:13;;;;;;;;;1.75;1.75;;;;;11.66;63.80;100820.69;5020316;28;45411;-69
2022/04/06 01:12:40;;;;;;;;;2.25;1.00;;;;;11.61;63.68;100822.69;5032748;28;46402;-69
2022/04/06 01:15:07;;;;;;;;;2.00;1.00;;;;;11.55;63.84;100822.09;5031428;28;45672;-69
2022/04/06 01:17:33;;;;;;;;;1.00;1.00;;;;;11.42;64.27;100819.16;5035665;28;45437;-70
2022/04/06 01:20:00;;;;;;;;;1.00;1.00;;;;;11.32;64.40;100815.22;5031632;28;45483;-70
2022/04/06 01:22:26;;;;;;;;;1.25;0.75;;;;;11.30;64.59;100815.31;5034260;28;46072;-69
2022/04/06 01:24:52;;;;;;;;;3.00;1.50;;;;;11.22;65.10;100813.03;5035011;28;45555;-69
2022/04/06 01:27:18;;;;;;;;;3.00;0.75;;;;;11.14;64.76;100804.63;5031584;28;45491;-69
2022/04/06 01:29:44;;;;;;;;;3.00;2.00;;;;;11.05;65.29;100797.13;5031727;28;45577;-69
2022/04/06 01:32:19;;;;;;;;;3.25;2.00;;;;;11.14;65.62;100825.66;5031273;28;46649;-70
2022/04/06 01:34:46;;;;;;;;;0.25;0.25;;;;;11.00;65.62;100809.63;5031328;28;45920;-69
2022/04/06 01:37:13;;;;;;;;;4.00;1.50;;;;;10.89;66.08;100803.97;5035966;28;45464;-69
2022/04/06 01:39:40;;;;;;;;;2.00;0.50;;;;;10.85;65.93;100810.28;5036489;28;45400;-69
2022/04/06 01:42:07;;;;;;;;;1.00;1.00;;;;;10.77;66.20;100807.13;5030341;28;45529;-69
2022/04/06 01:44:34;;;;;;;;;1.75;1.75;;;;;10.78;66.50;100821.97;5031360;28;45350;-69
2022/04/06 01:47:01;;;;;;;;;3.00;2.00;;;;;10.70;66.96;100810.03;5031694;28;45484;-69
2022/04/06 01:52:15;;;;;;;;;1.50;1.50;;;;;10.61;67.32;100812.19;5019664;28;45768;-69
2022/04/06 01:54:45;;;;;;;;;3.00;0.50;;;;;10.59;67.39;100814.00;5035796;28;45449;-69
2022/04/06 01:57:11;;;;;;;;;3.00;3.00;;;;;10.45;67.44;100788.31;5031655;28;45437;-69
2022/04/06 01:59:36;;;;;;;;;3.00;1.00;;;;;10.44;67.21;100790.09;5032537;28;45434;-69
2022/04/06 02:02:03;;;;;;;;;1.75;1.75;;;;;10.53;67.69;100812.50;5022027;28;46210;-69
2022/04/06 02:04:29;;;;;;;;;1.75;1.75;;;;;10.34;67.75;100787.91;5033290;28;45516;-69
2022/04/06 02:06:54;;;;;;;;;2.50;2.00;;;;;10.33;67.67;100791.44;5033629;28;45334;-69
2022/04/06 02:09:20;;;;;;;;;1.50;1.00;;;;;10.26;68.23;100785.59;5031283;28;45538;-69
2022/04/06 02:11:47;;;;;;;;;1.50;1.50;;;;;10.28;68.16;100793.41;5030689;28;45659;-69
2022/04/06 02:14:13;;;;;;;;;2.75;2.00;;;;;10.20;68.22;100785.81;5030115;28;45614;-69
2022/04/06 02:16:39;;;;;;;;;2.75;1.00;;;;;10.23;68.85;100801.41;5030064;28;45334;-69
2022/04/06 02:19:05;;;;;;;;;0.50;0.50;;;;;10.14;68.51;100786.91;5018129;28;45389;-69
2022/04/06 02:21:30;;;;;;;;;2.50;1.25;;;;;10.12;68.90;100791.34;5034604;28;46241;-69
2022/04/06 02:23:56;;;;;;;;;2.50;2.00;;;;;10.08;68.71;100786.31;5030532;28;45583;-69
2022/04/06 02:26:21;;;;;;;;;1.75;1.75;;;;;10.07;69.17;100792.47;5030414;28;45366;-69
2022/04/06 02:28:47;;;;;;;;;3.00;1.50;;;;;10.07;69.47;100788.06;5031058;28;45396;-69
2022/04/06 02:31:12;;;;;;;;;1.50;1.25;;;;;9.94;69.19;100771.94;5034259;28;45424;-69
2022/04/06 02:33:37;;;;;;;;;2.50;1.00;;;;;10.00;68.81;100785.75;5035379;28;45294;-69
2022/04/06 02:36:03;;;;;;;;;2.00;1.00;;;;;9.94;69.11;100769.31;5030383;28;45222;-69
2022/04/06 02:38:30;;;;;;;;;0.00;0.00;;;;;9.95;68.98;100775.44;5030857;28;45486;-69
2022/04/06 02:40:55;;;;;;;;;2.00;1.75;;;;;9.88;69.26;100769.56;5030328;28;45472;-69
2022/04/06 02:43:21;;;;;;;;;3.50;2.75;;;;;9.82;69.28;100758.47;5033580;28;45603;-69
2022/04/06 02:45:47;;;;;;;;;3.00;1.00;;;;;9.85;69.43;100772.31;5026358;28;45500;-69
2022/04/06 02:48:14;;;;;;;;;0.75;0.75;;;;;9.89;69.97;100773.03;5022043;28;45410;-69
2022/04/06 02:50:39;;;;;;;;;0.25;0.00;;;;;9.94;69.74;100761.44;5025792;28;45551;-69
2022/04/06 02:53:05;;;;;;;;;1.00;1.00;;;;;10.02;69.71;100765.53;5020982;28;45611;-69
2022/04/06 02:55:30;;;;;;;;;0.50;0.00;;;;;10.08;69.53;100760.06;5019252;28;45683;-69
2022/04/06 02:57:55;;;;;;;;;2.75;1.25;;;;;10.16;69.38;100764.06;5033002;28;45437;-69
2022/04/06 03:00:21;;;;;;;;;0.50;0.00;;;;;10.17;69.56;100751.78;5032547;28;45526;-69
2022/04/06 03:02:46;;;;;;;;;2.25;1.00;;;;;10.26;69.24;100759.31;5030371;28;45459;-69
2022/04/06 03:05:12;;;;;;;;;2.25;1.00;;;;;10.35;68.81;100765.97;5030013;28;45305;-69
2022/04/06 03:07:41;;;;;;;;;1.25;0.00;;;;;10.36;69.08;100747.50;5031394;28;45556;-70
2022/04/06 03:10:07;;;;;;;;;2.25;1.75;;;;;10.34;68.64;100748.50;5033465;28;46186;-69
2022/04/06 03:12:33;;;;;;;;;1.50;0.50;;;;;10.37;68.63;100746.59;5030434;28;45362;-69
2022/04/06 03:14:58;;;;;;;;;8.25;1.75;;;;;10.41;68.70;100747.31;5028266;28;46217;-70
2022/04/06 03:17:23;;;;;;;;;1.00;1.00;;;;;10.47;68.66;100752.31;5027027;28;45472;-69
2022/04/06 03:19:50;;;;;;;;;0.50;0.50;;;;;10.45;68.75;100752.38;5029630;28;45342;-69
2022/04/06 03:22:17;;;;;;;;;1.00;1.00;;;;;10.47;68.22;100741.81;5033438;28;45786;-69
2022/04/06 03:24:46;;;;;;;;;0.75;0.75;;;;;10.51;68.63;100742.53;5030979;28;45290;-69
2022/04/06 03:27:12;;;;;;;;;1.00;1.00;;;;;10.52;68.65;100736.34;5029413;28;45474;-69
2022/04/06 03:29:39;;;;;;;;;1.25;0.00;;;;;10.49;68.33;100729.44;5029159;28;46702;-69
2022/04/06 03:32:06;;;;;;;;;2.00;0.25;;;;;10.50;68.48;100720.66;5029638;28;45433;-69
2022/04/06 03:34:31;;;;;;;;;2.00;1.00;;;;;10.49;68.11;100724.19;5031340;28;45710;-69
2022/04/06 03:36:56;;;;;;;;;0.00;0.00;;;;;10.48;68.33;100727.75;5032764;28;45295;-69
2022/04/06 03:39:22;;;;;;;;;2.00;0.75;;;;;10.44;67.99;100719.16;5030199;28;45716;-69
2022/04/06 03:41:47;;;;;;;;;3.00;2.00;;;;;10.39;68.19;100712.41;5029375;28;45440;-69
2022/04/06 03:44:12;;;;;;;;;1.00;0.00;;;;;10.41;68.14;100723.69;5029899;28;45718;-69
2022/04/06 03:46:38;;;;;;;;;2.00;1.25;;;;;10.37;68.12;100712.44;5027418;28;45581;-69
2022/04/06 03:49:03;;;;;;;;;0.00;0.00;;;;;10.34;68.34;100717.84;5018774;28;45249;-69
2022/04/06 03:51:29;;;;;;;;;0.00;0.00;;;;;10.35;68.45;100711.66;5030198;28;45371;-69
2022/04/06 03:53:54;;;;;;;;;1.75;1.00;;;;;10.37;68.69;100719.47;5029388;28;45561;-69
2022/04/06 03:56:19;;;;;;;;;1.00;1.00;;;;;10.41;68.25;100713.16;5029334;28;45393;-69
2022/04/06 03:58:45;;;;;;;;;0.00;0.00;;;;;10.37;68.55;100706.34;5029139;28;45574;-70
2022/04/06 04:01:10;;;;;;;;;1.00;0.75;;;;;10.37;68.86;100708.97;5033734;28;45385;-69
2022/04/06 04:03:35;;;;;;;;;3.75;0.25;;;;;10.41;68.64;100705.28;5029405;28;45252;-69
2022/04/06 04:06:01;;;;;;;;;1.50;1.50;;;;;10.43;68.67;100711.31;5029394;28;45448;-69
2022/04/06 04:08:27;;;;;;;;;0.00;0.00;;;;;10.56;68.45;100722.19;5023554;28;46215;-69
2022/04/06 04:10:53;;;;;;;;;0.25;0.25;;;;;10.58;68.04;100725.59;5019338;28;45831;-69
2022/04/06 04:13:18;;;;;;;;;1.00;1.00;;;;;10.55;68.32;100718.69;5018243;28;45607;-70
2022/04/06 04:15:43;;;;;;;;;0.75;0.25;;;;;10.58;68.06;100725.59;5025518;28;45449;-70
2022/04/06 04:18:09;;;;;;;;;1.00;1.00;;;;;10.58;68.51;100723.81;5026538;28;47052;-69
2022/04/06 04:20:34;;;;;;;;;1.00;1.00;;;;;10.58;68.50;100718.56;5024624;28;45547;-69
2022/04/06 04:22:59;;;;;;;;;0.00;0.00;;;;;10.58;68.33;100722.94;5028574;28;45551;-69
2022/04/06 04:25:25;;;;;;;;;1.00;1.00;;;;;10.55;68.19;100721.31;5032665;28;49590;-69
2022/04/06 04:27:50;;;;;;;;;1.25;1.25;;;;;10.55;68.35;100723.97;5017477;28;45928;-69
2022/04/06 04:30:16;;;;;;;;;1.00;0.00;;;;;10.54;68.74;100709.09;5029353;28;45456;-69
2022/04/06 04:32:41;;;;;;;;;4.00;1.50;;;;;10.57;68.61;100718.63;5028973;28;45239;-69
2022/04/06 04:35:08;;;;;;;;;1.00;1.00;;;;;10.59;68.86;100714.16;5027926;28;45650;-69
2022/04/06 04:37:33;;;;;;;;;1.00;1.00;;;;;10.58;68.79;100717.69;5034220;28;47638;-69
2022/04/06 04:39:59;;;;;;;;;1.00;1.00;;;;;10.52;68.78;100705.69;5021098;28;45388;-69
2022/04/06 04:42:24;;;;;;;;;1.75;1.75;;;;;10.52;68.85;100707.47;5029592;28;45501;-69
2022/04/06 04:44:49;;;;;;;;;1.00;1.00;;;;;10.48;69.12;100705.88;5029270;28;45458;-70
2022/04/06 04:47:16;;;;;;;;;1.50;1.50;;;;;10.44;68.86;100702.53;5025024;28;47049;-69
2022/04/06 04:49:42;;;;;;;;;2.25;1.00;;;;;10.41;69.27;100685.13;5028029;28;45429;-69
2022/04/06 04:52:08;;;;;;;;;6.00;2.00;;;;;10.40;69.62;100693.09;5036554;28;45508;-70
2022/04/06 04:54:33;;;;;;;;;1.00;1.00;;;;;10.40;69.30;100693.94;5014401;28;45402;-70
2022/04/06 04:56:58;;;;;;;;;1.00;1.00;;;;;10.42;69.12;100692.06;5031734;28;45443;-70
2022/04/06 04:59:25;;;;;;;;;1.00;1.00;;;;;10.45;69.55;100693.75;5032220;28;45403;-70
2022/04/06 05:01:50;;;;;;;;;2.50;2.00;;;;;10.48;69.39;100677.81;5031718;28;45366;-70
2022/04/06 05:04:16;;;;;;;;;3.75;2.00;;;;;10.52;69.83;100684.66;5034305;28;45482;-70
2022/04/06 05:06:41;;;;;;;;;2.25;1.75;;;;;10.55;69.78;100684.53;5032120;28;46320;-69
2022/04/06 05:09:07;;;;;;;;;0.50;0.50;;;;;10.60;69.16;100685.19;5036115;28;45544;-70
2022/04/06 05:11:33;;;;;;;;;2.00;2.00;;;;;10.63;69.23;100684.19;5032332;28;45474;-70
2022/04/06 05:13:58;;;;;;;;;2.25;2.00;;;;;10.66;69.50;100684.91;5031772;28;45492;-70
2022/04/06 05:16:23;;;;;;;;;4.00;1.00;;;;;10.70;69.12;100680.34;5029425;28;45302;-70
2022/04/06 05:18:49;;;;;;;;;3.00;2.00;;;;;10.69;69.17;100676.88;5033473;28;45611;-70
2022/04/06 05:21:14;;;;;;;;;1.50;1.50;;;;;10.67;68.58;100678.72;5031566;28;52529;-70
2022/04/06 05:23:39;;;;;;;;;1.25;1.25;;;;;10.63;68.88;100679.78;5031618;28;45397;-70
2022/04/06 05:26:05;;;;;;;;;1.25;1.25;;;;;10.64;68.62;100686.75;5034800;28;55336;-69
2022/04/06 05:28:30;;;;;;;;;5.25;1.00;;;;;10.64;68.68;100676.22;5033431;28;45628;-70
2022/04/06 05:30:56;;;;;;;;;2.75;2.75;;;;;10.66;68.60;100666.53;5018575;28;45474;-69
2022/04/06 05:33:21;;;;;;;;;2.00;1.00;;;;;10.65;68.71;100667.44;5028802;28;45294;-69
2022/04/06 05:35:47;;;;;;;;;1.25;1.25;;;;;10.68;68.45;100676.97;5032606;28;46036;-70
2022/04/06 05:38:12;;;;;;;;;2.00;1.00;;;;;10.69;68.78;100673.41;5030878;28;45356;-70
2022/04/06 05:40:38;;;;;;;;;0.25;0.25;;;;;10.72;68.99;100675.91;5033928;28;45623;-70
2022/04/06 05:43:03;;;;;;;;;2.00;2.00;;;;;10.77;68.91;100673.06;5035948;28;46295;-69
2022/04/06 05:45:29;;;;;;;;;2.00;2.00;;;;;10.81;68.77;100678.13;5029101;28;45365;-69
2022/04/06 05:47:54;;;;;;;;;3.00;2.50;;;;;10.83;69.02;100676.28;5031145;28;45469;-70
2022/04/06 05:50:20;;;;;;;;;4.25;3.00;;;;;10.83;68.83;100681.53;5029705;28;45368;-70
2022/04/06 05:52:45;;;;;;;;;3.25;3.00;;;;;10.85;68.64;100684.09;5039327;28;45398;-69
2022/04/06 05:55:11;;;;;;;;;4.00;3.00;;;;;10.83;69.09;100681.53;5035481;28;46058;-70
2022/04/06 05:57:37;;;;;;;;;2.75;2.50;;;;;10.85;69.12;100684.94;5031807;28;45535;-70
2022/04/06 06:00:07;;;;;;;;;4.75;2.25;;;;;10.88;68.76;100686.59;5029771;28;45537;-69
2022/04/06 06:02:34;;;;;;;;;4.50;4.00;;;;;10.88;69.33;100683.97;5029063;28;45816;-69
2022/04/06 06:04:59;;;;;;;;;6.75;4.00;;;;;10.90;69.14;100687.34;5030570;28;46378;-70
2022/04/06 06:07:24;;;;;;;;;3.00;3.00;;;;;10.90;69.12;100677.69;5032961;28;46276;-70
2022/04/06 06:09:50;;;;;;;;;4.50;2.50;;;;;10.91;69.22;100674.16;5032795;28;45441;-70
2022/04/06 06:12:15;;;;;;;;;4.00;1.00;;;;;10.94;69.07;100673.16;5032585;28;45690;-70
2022/04/06 06:14:40;;;;;;;;;7.00;3.00;;;;;10.94;68.77;100684.53;5028966;28;46142;-69
2022/04/06 06:17:06;;;;;;;;;6.00;2.00;;;;;10.95;69.06;100680.97;5032356;28;45606;-70
2022/04/06 06:19:31;;;;;;;;;2.00;2.00;;;;;10.93;69.13;100676.72;5032869;28;45591;-69
2022/04/06 06:21:56;;;;;;;;;6.50;3.25;;;;;10.93;69.24;100674.09;5032448;28;45532;-69
2022/04/06 06:24:22;;;;;;;;;4.50;4.00;;;;;10.96;69.06;100671.31;5034134;28;45425;-70
2022/04/06 06:26:48;;;;;;;;;6.25;2.00;;;;;10.97;69.32;100670.41;5034598;28;45415;-69
2022/04/06 06:29:13;;;;;;;;;4.00;3.00;;;;;10.96;69.06;100659.03;5029622;28;45445;-70
2022/04/06 06:31:39;;;;;;;;;6.25;2.75;;;;;11.00;69.04;100662.34;5025566;28;45401;-70
2022/04/06 06:34:04;;;;;;;;;3.75;2.75;;;;;11.00;68.87;100651.00;5031798;28;46188;-70
2022/04/06 06:36:30;;;;;;;;;2.25;1.75;;;;;11.03;69.06;100662.22;5030741;28;45401;-71
2022/04/06 06:38:56;;;;;;;;;5.75;3.50;;;;;11.05;69.01;100662.16;5034357;28;45321;-71
2022/04/06 06:41:22;;;;;;;;;2.25;2.25;;;;;11.07;68.93;100665.59;5030275;28;45527;-70
2022/04/06 06:43:49;;;;;;;;;2.75;2.00;;;;;11.11;69.17;100667.13;5034173;28;45353;-70
2022/04/06 06:46:16;;;;;;;;;2.00;2.00;;;;;11.17;68.54;100666.84;5034261;28;45752;-71
2022/04/06 06:48:42;;;;;;;;;3.25;3.00;;;;;11.14;68.52;100662.59;5025367;28;45400;-71
2022/04/06 06:51:07;;;;;;;;;6.75;4.25;;;;;11.12;68.40;100656.56;5029288;28;45485;-69
2022/04/06 06:53:32;;;;;;;;;3.25;2.00;;;;;11.10;68.45;100658.38;5029326;28;47125;-71
2022/04/06 06:55:58;;;;;;;;;2.00;2.00;;;;;11.10;68.88;100655.75;5033062;28;45425;-70
2022/04/06 06:58:23;;;;;;;;;6.00;3.00;;;;;11.11;68.79;100664.50;5033558;28;45490;-71
2022/04/06 07:00:48;;;;;;;;;3.75;3.75;;;;;11.13;68.60;100655.63;5031870;28;46704;-70
2022/04/06 07:03:14;;;;;;;;;5.00;2.00;;;;;11.18;68.69;100655.41;5033134;28;45396;-71
2022/04/06 07:05:39;;;;;;;;;3.00;3.00;;;;;11.23;68.53;100654.28;5029858;28;45617;-71
2022/04/06 07:08:05;;;;;;;;;5.50;3.50;;;;;11.25;68.30;100651.56;5032732;28;45434;-72
2022/04/06 07:10:30;;;;;;;;;3.00;3.00;;;;;11.26;68.34;100649.78;5033727;28;45532;-71
2022/04/06 07:12:56;;;;;;;;;4.00;3.75;;;;;11.24;68.43;100648.06;5018063;28;46035;-72
2022/04/06 07:15:23;;;;;;;;;2.75;2.75;;;;;11.26;68.01;100655.03;5033934;28;45573;-71
2022/04/06 07:17:52;;;;;;;;;1.75;1.75;;;;;11.30;68.67;100648.72;5033644;28;47004;-71
2022/04/06 07:20:17;;;;;;;;;3.00;2.00;;;;;11.35;68.42;100637.03;5031365;28;45355;-71
2022/04/06 07:22:43;;;;;;;;;3.00;2.00;;;;;11.43;68.47;100639.28;5029411;28;45513;-71
2022/04/06 07:25:08;;;;;;;;;9.00;4.00;;;;;11.52;68.53;100638.84;5028455;28;58635;-69
2022/04/06 07:27:37;;;;;;;;;3.00;2.00;;;;;11.65;68.29;100644.41;5034038;28;45641;-69
2022/04/06 07:30:04;;;;;;;;;2.50;2.50;;;;;11.74;68.10;100638.66;5029221;28;45344;-69
2022/04/06 07:32:30;;;;;;;;;3.75;1.50;;;;;11.85;67.60;100633.78;5023786;28;46163;-69
2022/04/06 07:34:55;;;;;;;;;3.75;2.00;;;;;11.91;67.12;100624.72;5031914;28;45462;-69
2022/04/06 07:37:21;;;;;;;;;3.00;2.50;;;;;11.92;66.84;100627.25;5028755;28;45459;-69
2022/04/06 07:39:46;;;;;;;;;2.00;2.00;;;;;11.95;67.07;100635.03;5031388;28;45512;-69
2022/04/06 07:42:11;;;;;;;;;2.25;2.25;;;;;11.98;66.79;100629.56;5034006;28;46023;-69
2022/04/06 07:44:37;;;;;;;;;2.50;2.00;;;;;12.00;66.48;100630.34;5031765;28;45470;-69
2022/04/06 07:47:02;;;;;;;;;2.00;2.00;;;;;12.09;66.84;100629.03;5028908;28;45292;-68
2022/04/06 07:49:28;;;;;;;;;3.00;2.00;;;;;12.17;66.80;100633.94;5031191;28;45417;-68
2022/04/06 07:51:53;;;;;;;;;9.50;4.00;;;;;12.26;66.49;100631.66;5030669;28;46619;-68
2022/04/06 07:54:18;;;;;;;;;7.25;2.25;;;;;12.33;66.23;100629.56;5032651;28;45247;-69
2022/04/06 07:56:43;;;;;;;;;2.00;1.75;;;;;12.36;66.17;100626.75;5028143;28;46898;-69
2022/04/06 07:59:09;;;;;;;;;2.75;2.75;;;;;12.40;66.03;100630.09;5030267;28;45457;-69
2022/04/06 08:01:34;;;;;;;;;5.75;3.00;;;;;12.44;66.03;100618.47;5033557;28;46351;-69
2022/04/06 08:04:00;;;;;;;;;2.00;2.00;;;;;12.49;66.10;100611.16;5021170;28;45392;-68
2022/04/06 08:06:25;;;;;;;;;1.25;1.00;;;;;12.54;65.60;100614.41;5032668;28;45267;-69
2022/04/06 08:08:53;;;;;;;;;2.75;2.75;;;;;12.57;66.02;100611.59;5028137;28;45413;-68
2022/04/06 08:11:19;;;;;;;;;3.00;3.00;;;;;12.65;65.81;100608.56;5026431;28;46438;-70
2022/04/06 08:13:44;;;;;;;;;4.00;2.50;;;;;12.72;65.86;100613.41;5035794;28;45460;-69
2022/04/06 08:16:09;;;;;;;;;2.00;2.00;;;;;12.75;65.32;100605.34;5030642;28;45436;-70
2022/04/06 08:18:35;;;;;;;;;2.00;1.25;;;;;12.77;64.98;100606.09;5036415;28;45463;-70
2022/04/06 08:21:02;;;;;;;;;3.00;1.00;;;;;12.79;64.92;100595.50;5032279;28;46695;-70
2022/04/06 08:23:27;;;;;;;;;5.00;2.00;;;;;12.81;64.69;100590.97;5034546;28;45782;-70
2022/04/06 08:25:53;;;;;;;;;4.00;2.00;;;;;12.89;64.84;100598.47;5034834;28;45372;-70
2022/04/06 08:28:19;;;;;;;;;1.00;1.00;;;;;12.97;64.53;100597.13;5034273;28;45283;-71
2022/04/06 08:30:47;;;;;;;;;4.75;3.00;;;;;13.12;64.82;100598.06;5014845;28;47077;-70
2022/04/06 08:33:13;;;;;;;;;3.75;3.00;;;;;13.22;64.48;100599.28;5028463;28;45444;-70
2022/04/06 08:35:40;;;;;;;;;2.75;1.50;;;;;13.30;64.15;100596.19;5033220;28;45587;-70
2022/04/06 08:38:06;;;;;;;;;2.00;1.75;;;;;13.28;63.54;100598.09;5030637;28;45434;-69
2022/04/06 08:40:33;;;;;;;;;4.00;3.00;;;;;13.27;63.54;100596.38;5035616;28;47703;-70
2022/04/06 08:43:00;;;;;;;;;1.50;1.50;;;;;13.29;63.62;100597.97;5031844;28;45732;-69
2022/04/06 08:45:26;;;;;;;;;2.00;2.00;;;;;13.35;63.34;100601.22;5037076;28;45325;-70
2022/04/06 08:47:53;;;;;;;;;3.50;2.00;;;;;13.39;63.16;100598.31;5035838;28;45551;-70
2022/04/06 08:50:19;;;;;;;;;5.50;2.00;;;;;13.40;62.75;100594.75;5034871;28;47230;-70
2022/04/06 08:52:46;;;;;;;;;8.50;2.00;;;;;13.43;62.95;100593.72;5034522;28;46072;-70
2022/04/06 08:55:13;;;;;;;;;2.75;1.50;;;;;13.42;62.77;100597.31;5031658;28;45538;-70
2022/04/06 08:57:41;;;;;;;;;3.00;2.00;;;;;13.48;62.93;100591.69;5038489;28;45515;-70
2022/04/06 09:00:06;;;;;;;;;4.25;2.00;;;;;13.50;62.72;100581.88;5035486;28;45444;-70
2022/04/06 09:02:32;;;;;;;;;2.25;2.00;;;;;13.54;62.88;100593.97;5034976;28;45790;-70
2022/04/06 09:04:57;;;;;;;;;2.75;2.00;;;;;13.58;62.44;100588.41;5016239;28;45715;-70
2022/04/06 09:07:24;;;;;;;;;3.00;3.00;;;;;13.61;62.19;100589.16;5025516;28;45596;-70
2022/04/06 09:09:54;;;;;;;;;3.00;3.00;;;;;13.64;62.30;100589.84;5032824;28;45508;-70
2022/04/06 09:12:22;;;;;;;;;9.50;7.00;;;;;13.64;61.95;100592.50;5030222;28;45943;-71
2022/04/06 09:14:48;;;;;;;;;2.50;2.50;;;;;13.68;62.40;100590.53;5032835;28;45436;-70
2022/04/06 09:17:19;;;;;;;;;3.00;3.00;;;;;13.69;62.10;100587.78;5031826;28;45461;-70
2022/04/06 09:19:49;;;;;;;;;5.50;3.00;;;;;13.70;61.96;100588.66;5035612;28;46032;-70
2022/04/06 09:22:15;;;;;;;;;3.25;2.00;;;;;13.71;61.83;100583.25;5035048;28;45833;-70
2022/04/06 09:24:40;;;;;;;;;3.50;3.50;;;;;13.76;61.88;100585.63;5032186;28;45523;-70
2022/04/06 09:27:06;;;;;;;;;3.50;3.00;;;;;13.83;62.16;100587.84;5034480;28;45513;-70
2022/04/06 09:29:34;;;;;;;;;4.25;4.00;;;;;13.95;61.69;100583.63;5035725;28;46313;-70
2022/04/06 09:32:08;;;;;;;;;3.00;3.00;;;;;14.05;61.60;100584.78;5035414;28;45899;-70
2022/04/06 09:34:34;;;;;;;;;3.00;3.00;;;;;14.13;61.34;100578.16;5036246;28;45401;-70
2022/04/06 09:37:29;;;;;;;;;4.25;3.00;;;;;14.13;60.65;100573.72;5035865;28;45338;-70
2022/04/06 09:39:57;;;;;;;;;1.25;1.25;;;;;14.11;60.96;100578.28;5033853;28;46323;-70
2022/04/06 09:42:27;;;;;;;;;3.00;3.00;;;;;14.11;60.51;100575.63;5034479;28;45370;-70
2022/04/06 09:47:39;;;;;;;;;5.00;4.00;;;;;14.02;60.40;100584.09;5036281;28;45481;-71
2022/04/06 09:50:12;;;;;;;;;2.50;2.50;;;;;13.99;60.68;100586.91;5044673;28;46131;-71
2022/04/06 09:52:38;;;;;;;;;2.25;2.25;;;;;14.01;60.88;100585.06;5039463;28;45537;-70
2022/04/06 09:55:07;;;;;;;;;3.25;2.50;;;;;14.09;60.69;100577.50;5034795;28;45634;-70
2022/04/06 09:57:42;;;;;;;;;6.25;4.00;;;;;14.18;60.60;100571.66;5035328;28;45516;-70
2022/04/06 10:00:10;;;;;;;;;5.00;5.00;;;;;14.20;60.20;100571.56;5034414;28;45412;-70
2022/04/06 10:02:36;;;;;;;;;3.25;3.00;;;;;14.14;60.33;100575.44;5034864;28;45708;-71
2022/04/06 10:05:03;;;;;;;;;1.25;1.00;;;;;14.19;60.64;100577.78;5031863;28;45460;-70
2022/04/06 10:07:29;;;;;;;;;4.75;3.50;;;;;14.15;60.35;100571.88;5034803;28;45503;-70
2022/04/06 10:09:56;;;;;;;;;4.00;3.25;;;;;14.11;60.39;100573.00;5033965;28;45490;-70
2022/04/06 10:12:23;;;;;;;;;2.25;2.25;;;;;14.17;60.36;100584.97;5032320;28;46276;-71
2022/04/06 10:14:50;;;;;;;;;2.25;2.25;;;;;14.18;60.13;100576.94;5035376;28;45455;-70
2022/04/06 10:17:17;;;;;;;;;2.00;2.00;;;;;14.26;60.33;100572.06;5033968;28;46594;-70
2022/04/06 10:19:50;;;;;;;;;2.25;1.75;;;;;14.29;60.02;100577.16;5034219;28;46263;-71
2022/04/06 10:22:22;;;;;;;;;2.75;2.75;;;;;14.23;60.41;100569.59;5021674;28;46257;-71
2022/04/06 10:25:24;;;;;;;;;3.00;3.00;;;;;14.21;60.16;100552.16;5030870;28;45425;-71
2022/04/06 10:27:55;;;;;;;;;9.00;3.00;;;;;14.33;60.77;100548.75;5032880;28;45306;-71
2022/04/06 10:30:26;;;;;;;;;2.00;1.50;;;;;14.46;60.46;100546.16;5035381;28;45485;-70
2022/04/06 10:32:53;;;;;;;;;3.00;3.00;;;;;14.49;59.59;100540.75;5034763;28;45796;-71
2022/04/06 10:35:33;;;;;;;;;4.50;2.00;;;;;14.62;60.29;100539.03;5033474;28;48171;-70
2022/04/06 10:37:59;;;;;;;;;3.50;3.00;;;;;14.78;59.97;100534.47;5034804;28;45522;-70
2022/04/06 10:40:45;;;;;;;;;3.67;2.00;;;;;14.90;59.12;100538.13;5033902;28;46500;-70
2022/04/06 10:43:40;;;;;;;;;3.25;3.00;;;;;14.95;59.58;100533.38;5001063;28;49915;-70
2022/04/06 10:46:08;;;;;;;;;3.00;2.00;;;;;14.94;59.15;100533.50;5032903;28;45479;-70
2022/04/06 10:48:35;;;;;;;;;3.25;3.25;;;;;14.86;58.99;100532.16;5035394;28;45676;-70
2022/04/06 10:51:30;;;;;;;;;3.75;3.50;;;;;14.78;58.95;100523.91;5033772;28;47006;-70
2022/04/06 10:53:55;;;;;;;;;3.00;2.00;;;;;14.75;58.76;100524.06;5032570;28;45835;-70
2022/04/06 10:56:22;;;;;;;;;3.25;3.00;;;;;14.75;58.95;100523.22;5034168;28;45293;-71
2022/04/06 10:58:57;;;;;;;;;2.50;2.50;;;;;14.73;59.27;100518.03;5033282;28;45528;-70
2022/04/06 11:01:26;;;;;;;;;6.25;3.75;;;;;14.72;59.24;100510.19;5032904;28;47135;-70
2022/04/06 11:03:58;;;;;;;;;1.75;1.75;;;;;14.60;59.01;100496.78;5034602;28;45601;-70
2022/04/06 11:06:48;;;;;;;;;2.00;2.00;;;;;14.47;59.08;100495.00;5022533;28;45546;-71
2022/04/06 11:12:28;;;;;;;;;2.75;2.75;;;;;14.40;59.58;100494.53;5034426;28;48637;-70
2022/04/06 11:14:59;;;;;;;;;6.00;3.50;;;;;14.43;59.97;100482.94;5033426;28;45772;-70
2022/04/06 11:17:32;;;;;;;;;3.50;3.50;;;;;14.42;59.78;100478.59;5033582;28;45568;-70
2022/04/06 11:19:59;;;;;;;;;3.75;2.00;;;;;14.35;59.63;100457.84;5033365;28;45369;-69
2022/04/06 11:22:25;;;;;;;;;4.50;3.50;;;;;14.41;59.41;100455.72;5032028;28;45549;-69
2022/04/06 11:24:50;;;;;;;;;4.50;3.00;;;;;14.35;59.92;100449.03;5033677;28;45298;-70
2022/04/06 11:27:32;;;;;;;;;5.00;4.75;;;;;14.42;59.87;100445.06;5034729;28;45869;-70
2022/04/06 11:30:18;;;;;;;;;7.50;4.75;;;;;14.48;59.50;100449.16;5032858;28;45528;-69
2022/04/06 11:32:52;;;;;;;;;6.00;5.00;;;;;14.58;59.35;100444.97;5032286;28;46797;-69